• Join FlightAware (Why Join?)
  • Login
  • US Flag 
06:55PM EDT


 

Airport Tracker/Info


-or-


 

Live Flight TrackerFlight Track Log ✈ NJE991C ✈ 18-Jun-2013 ✈ KHPN - EGGW / LTN

Flight Track Log - Related Links

Times and Time Zones

All times are in EDT time to prevent confusion due to time zone crossing. See the NJE991C flight status page for this flight to view local times or setup timezone preferences in your user account.

Time Position Orientation Groundspeed Altitude Reporting Facility
EDT Latitude Longitude Course Direction KTS MPH feet Rate Location/Type
06:27PM 41.0333 -73.7000 294° West 193 222 2,600  Level New York TRACON
06:28PM 41.0500 -73.7500 294° West 219 252 5,500 3,000 Climbing New York TRACON
06:29PM 41.1000 -73.6833 45° Northeast 249 287 8,600 3,000 Climbing New York TRACON
06:31PM 41.2142 -73.4611 56° Northeast 352 405 15,400 2,460 Climbing Boston Center
06:32PM 41.2672 -73.3597 55° Northeast 367 422 16,800 1,980 Climbing Boston Center
06:33PM 41.3411 -73.2169 55° Northeast 394 453 19,400 2,340 Climbing Boston Center
06:34PM 41.4108 -73.0794 56° Northeast 422 486 21,500 1,860 Climbing Boston Center
06:35PM 41.4781 -72.9278 59° Northeast 445 512 23,200 1,680 Climbing Boston Center
06:36PM 41.5308 -72.7978 61° Northeast 472 543 24,900 2,040 Climbing Boston Center
06:37PM 41.6186 -72.6011 59° Northeast 506 582 27,300 1,920 Climbing Boston Center
06:38PM 41.6794 -72.4622 60° Northeast 524 603 28,800 1,800 Climbing Boston Center
06:39PM 41.7731 -72.2536 59° Northeast 535 616 30,900 1,980 Climbing Boston Center
06:40PM 41.8539 -72.0722 59° Northeast 546 628 32,800 1,860 Climbing Boston Center
06:41PM 41.9322 -71.8903 60° Northeast 551 634 34,700 1,860 Climbing Boston Center
06:42PM 42.0103 -71.7081 60° Northeast 551 634 36,600 1,740 Climbing Boston Center
06:43PM 42.0925 -71.5308 58° Northeast 551 634 38,200 1,200 Climbing Boston Center
06:44PM 42.1764 -71.3419 59° Northeast 562 647 39,000 480 Climbing Boston Center
06:45PM 42.2556 -71.1497 61° Northeast 574 661 39,200 540 Climbing Boston Center
06:46PM 42.3367 -70.9600 60° Northeast 587 676 40,100 840 Climbing Boston Center
06:47PM 42.4131 -70.7697 61° Northeast 579 666 40,900 420 Climbing Boston Center
06:48PM 42.4914 -70.5817 60° Northeast 573 659 41,000  Climbing Boston Center
06:49PM 42.5694 -70.3933 61° Northeast 573 659 41,000  Level Boston Center
06:50PM 42.6472 -70.2072 60° Northeast 568 654 41,000  Level Boston Center
06:51PM 42.7247 -70.0178 61° Northeast 568 654 41,000  Level Boston Center
06:52PM 42.8019 -69.8308 61° Northeast 568 654 41,000  Level Boston Center
06:53PM 42.8886 -69.6203 61° Northeast 576 663 41,000  Level Boston Center
06:54PM 42.9806 -69.3919 61° Northeast 576 663 41,000  Level Boston Center
06:55PM 43.0567 -69.2033 61° Northeast 576 663 41,000  Level Boston Center
06:56PM 43.1322 -69.0058 62° Northeast 576 663 41,000  Level Boston Center
06:57PM 43.2233 -68.7783 61° Northeast 570 656 41,000  Level Boston Center
06:58PM 43.3039 -68.5708 62° Northeast 570 656 41,000  Level Boston Center
06:59PM 43.3747 -68.3892 62° Northeast 580 667 41,000  Level Boston Center
07:00PM 43.4550 -68.1836 62° Northeast 567 652 41,000  Level Boston Center
07:01PM 43.5136 -68.0275 63° Northeast 567 652 41,000  Level Boston Center
07:02PM 43.6025 -67.7944 62° Northeast 572 658 41,000  Level Boston Center
07:03PM 43.6500 -67.6000 71° East 570 656 41,000  Level Moncton Center
07:04PM 43.7333 -67.4333 55° Northeast 570 656 41,000  Level Moncton Center
07:05PM 43.8000 -67.2167 67° East 570 656 41,000  Level Moncton Center
07:06PM 43.8667 -67.0333 63° Northeast 570 656 41,000  Level Moncton Center
07:07PM 43.9500 -66.8333 60° Northeast 570 656 41,000  Level Moncton Center
07:08PM 44.0167 -66.6333 65° Northeast 570 656 41,000  Level Moncton Center
07:09PM 44.1000 -66.4167 62° Northeast 580 667 41,000  Level Moncton Center
07:10PM 44.1500 -66.2333 69° East 580 667 41,000  Level Moncton Center
07:11PM 44.2500 -66.0333 55° Northeast 580 667 41,000  Level Moncton Center
07:12PM 44.3167 -65.8167 67° East 570 656 41,000  Level Moncton Center
07:13PM 44.3833 -65.6167 65° Northeast 570 656 41,000  Level Moncton Center
07:14PM 44.4500 -65.4333 63° Northeast 570 656 41,000  Level Moncton Center
07:15PM 44.5167 -65.2167 67° East 570 656 41,000  Level Moncton Center
07:16PM 44.5833 -65.0333 63° Northeast 580 667 41,000  Level Moncton Center
07:17PM 44.6500 -64.8167 67° East 580 667 41,000  Level Moncton Center
07:18PM 44.7167 -64.6167 65° Northeast 580 667 41,000  Level Moncton Center
07:19PM 44.7833 -64.4167 65° Northeast 580 667 41,000  Level Moncton Center
07:20PM 44.8667 -64.1833 63° Northeast 580 667 41,000  Level Moncton Center
07:21PM 44.9333 -64.0000 63° Northeast 580 667 41,000  Level Moncton Center
07:22PM 45.0000 -63.7833 66° East 580 667 41,000  Level Moncton Center
07:23PM 45.0667 -63.5667 66° East 590 679 41,000  Level Moncton Center
07:24PM 45.1333 -63.3500 66° East 590 679 41,000  Level Moncton Center
07:25PM 45.2000 -63.1333 66° East 590 679 41,000  Level Moncton Center
07:26PM 45.2667 -62.9500 63° Northeast 580 667 41,000  Level Moncton Center
07:27PM 45.3333 -62.7333 66° East 590 679 41,000  Level Moncton Center
07:28PM 45.4167 -62.5167 61° Northeast 590 679 41,000  Level Moncton Center
07:29PM 45.4667 -62.3000 72° East 590 679 41,000  Level Moncton Center
07:30PM 45.5333 -62.0833 66° East 590 679 41,000  Level Moncton Center
07:31PM 45.6000 -61.8667 66° East 590 679 41,000  Level Moncton Center
07:32PM 45.6500 -61.6500 72° East 580 667 41,000  Level Moncton Center
07:33PM 45.7333 -61.4167 63° Northeast 590 679 41,000  Level Moncton Center
07:34PM 45.8333 -61.2500 49° Northeast 580 667 41,000  Level Moncton Center
07:35PM 45.9500 -61.0833 45° Northeast 570 656 41,000  Level Moncton Center
07:36PM 46.0333 -60.9000 57° Northeast 570 656 41,000  Level Moncton Center
07:37PM 46.1333 -60.7333 49° Northeast 570 656 41,000  Level Moncton Center
07:38PM 46.2500 -60.5500 47° Northeast 570 656 41,000  Level Moncton Center
07:39PM 46.3333 -60.3667 57° Northeast 570 656 41,000  Level Moncton Center
07:40PM 46.4500 -60.2167 42° Northeast 570 656 41,000  Level Moncton Center
07:41PM 46.5500 -60.0167 54° Northeast 570 656 41,000  Level Moncton Center
07:42PM 46.6500 -59.8500 49° Northeast 570 656 41,000  Level Gander Center
07:43PM 46.7500 -59.6667 51° Northeast 570 656 41,000  Level Gander Center
07:44PM 46.8500 -59.4833 51° Northeast 570 656 41,000  Level Gander Center
07:45PM 46.9500 -59.3000 51° Northeast 570 656 41,000  Level Gander Center
07:46PM 47.0500 -59.1333 49° Northeast 560 644 41,000  Level Gander Center
07:47PM 47.1500 -58.9500 51° Northeast 560 644 41,000  Level Gander Center
07:48PM 47.2500 -58.7667 51° Northeast 570 656 41,000  Level Moncton Center
07:49PM 47.3500 -58.5667 54° Northeast 570 656 41,000  Level Gander Center
07:50PM 47.4500 -58.4000 48° Northeast 570 656 41,000  Level Gander Center
07:51PM 47.5333 -58.2167 56° Northeast 540 621 41,000  Level Gander Center
07:52PM 47.6333 -58.0667 45° Northeast 540 621 41,000  Level Gander Center
07:53PM 47.7333 -57.8833 51° Northeast 540 621 41,000  Level Gander Center
07:54PM 47.8000 -57.7000 62° Northeast 530 610 41,000  Level Gander Center
07:55PM 47.9000 -57.5167 51° Northeast 540 621 41,000  Level Gander Center
07:56PM 48.0000 -57.3333 51° Northeast 550 633 41,000  Level Gander Center
07:57PM 48.0667 -57.1333 63° Northeast 550 633 41,000  Level Gander Center
07:58PM 48.1667 -56.9500 51° Northeast 560 644 41,000  Level Gander Center
07:59PM 48.2333 -56.7667 61° Northeast 560 644 41,000  Level Gander Center
08:00PM 48.3333 -56.5500 55° Northeast 550 633 41,000  Level Gander Center
08:01PM 48.4167 -56.3667 56° Northeast 540 621 41,000  Level Gander Center
08:02PM 48.5000 -56.2167 50° Northeast 530 610 41,000  Level Gander Center
08:03PM 48.6000 -56.0000 55° Northeast 530 610 41,000  Level Gander Center
08:04PM 48.6667 -55.8167 61° Northeast 530 610 41,000  Level Gander Center
08:05PM 48.7500 -55.6333 55° Northeast 530 610 41,000  Level Gander Center
08:06PM 48.8333 -55.4333 58° Northeast 530 610 41,000  Level Gander Center
08:07PM 48.9167 -55.2500 55° Northeast 540 621 41,000  Level Gander Center
08:08PM 49.0000 -55.0667 55° Northeast 530 610 41,000  Level Gander Center
08:09PM 49.0667 -54.8667 63° Northeast 530 610 41,000  Level Gander Center
08:10PM 49.1667 -54.6833 50° Northeast 530 610 41,000  Level Gander Center
08:11PM 49.2333 -54.5000 61° Northeast 530 610 41,000  Level Gander Center
08:12PM 49.3000 -54.3333 58° Northeast 530 610 41,000  Level Gander Center
08:13PM 49.4000 -54.1167 55° Northeast 540 621 41,000  Level Gander Center
08:14PM 49.4833 -53.9167 57° Northeast 540 621 41,000  Level Gander Center
08:15PM 49.5500 -53.7167 63° Northeast 540 621 41,000  Level Gander Center
08:16PM 49.6333 -53.5333 55° Northeast 540 621 41,000  Level Gander Center
08:17PM 49.7333 -53.3000 56° Northeast 550 633 41,000  Level Gander Center
08:18PM 49.8000 -53.1167 61° Northeast 550 633 41,000  Level Gander Center
08:19PM 49.8833 -52.9167 57° Northeast 550 633 41,000  Level Gander Center
08:20PM 49.9500 -52.7167 63° Northeast 550 633 41,000  Level Gander Center
08:21PM 50.0333 -52.5167 57° Northeast 540 621 41,000  Level Gander Center
08:22PM 50.1167 -52.3000 59° Northeast 550 633 41,000  Level Gander Center
08:23PM 50.1833 -52.1000 62° Northeast 550 633 41,000  Level Gander Center
08:24PM 51.0000 -50.0000 77° East 553 636 41,000  Level ETMS Enhanced Traffic Management System
08:25PM 50.3333 -51.7167 77° East 550 633 41,000  Level Moncton Center
08:26PM 50.4333 -51.5000 54° Northeast 550 633 41,000  Level Gander Center
08:27PM 50.4833 -51.3000 68° East 550 633 41,000  Level Moncton Center
08:28PM 50.5667 -51.0667 61° Northeast 550 633 41,000  Level Gander Center
08:29PM 50.6500 -50.8667 57° Northeast 550 633 41,000  Level Gander Center
08:30PM 50.7167 -50.6667 62° Northeast 550 633 41,000  Level Gander Center
08:31PM 50.8000 -50.4500 59° Northeast 560 644 41,000  Level Moncton Center
08:32PM 50.8833 -50.2500 57° Northeast 550 633 41,000  Level Gander Center
08:33PM 50.9667 -50.0167 60° Northeast 550 633 41,000  Level Gander Center
08:34PM 51.0167 -49.8000 70° East 550 633 41,000  Level Gander Center
08:35PM 51.0333 -49.5500 84° East 560 644 41,000  Level Gander Center
08:36PM 51.0000 -50.0000 77° East 553 636 41,000  Level ETMS Enhanced Traffic Management System
08:36PM 51.0667 -49.3333 77° East 560 644 41,000  Level Gander Center
08:37PM 51.1000 -49.0667 79° East 550 633 41,000  Level Gander Center
08:38PM 51.1167 -48.8500 83° East 550 633 41,000  Level Gander Center
08:40PM 51.1517 -48.5971 77° East  Level FlightAware Approximate
08:47PM 51.3588 -47.0035 78° East  Level FlightAware Approximate
08:48PM 51.3866 -46.7747 79° East  Level FlightAware Approximate
08:49PM 51.4140 -46.5456 79° East  Level FlightAware Approximate
08:50PM 51.4409 -46.3162 79° East  Level FlightAware Approximate
08:51PM 51.4674 -46.0866 79° East  Level FlightAware Approximate
08:52PM 51.4934 -45.8567 80° East  Level FlightAware Approximate
08:53PM 51.5190 -45.6265 80° East  Level FlightAware Approximate
08:54PM 51.5441 -45.3961 80° East  Level FlightAware Approximate
08:55PM 51.5687 -45.1655 80° East  Level FlightAware Approximate
08:56PM 51.5930 -44.9346 80° East  Level FlightAware Approximate
08:57PM 51.6167 -44.7034 81° East  Level FlightAware Approximate
08:58PM 51.6400 -44.4720 81° East  Level FlightAware Approximate
08:59PM 51.6629 -44.2404 81° East  Level FlightAware Approximate
09:00PM 51.6853 -44.0085 81° East  Level FlightAware Approximate
09:01PM 51.7072 -43.7764 81° East  Level FlightAware Approximate
09:02PM 51.7287 -43.5441 81° East  Level FlightAware Approximate
09:03PM 51.7498 -43.3116 82° East  Level FlightAware Approximate
09:04PM 51.7703 -43.0788 82° East  Level FlightAware Approximate
09:05PM 51.7904 -42.8459 82° East  Level FlightAware Approximate
09:06PM 51.8101 -42.6127 82° East  Level FlightAware Approximate
09:07PM 51.8295 -42.3788 82° East  Level FlightAware Approximate
09:08PM 51.8484 -42.1452 82° East  Level FlightAware Approximate
09:09PM 51.8669 -41.9115 83° East  Level FlightAware Approximate
09:10PM 51.8848 -41.6776 83° East  Level FlightAware Approximate
09:11PM 51.9024 -41.4436 83° East  Level FlightAware Approximate
09:12PM 51.9195 -41.2093 83° East  Level FlightAware Approximate
09:13PM 51.9361 -40.9748 83° East  Level FlightAware Approximate
09:14PM 51.9522 -40.7402 84° East  Level FlightAware Approximate
09:15PM 51.9679 -40.5055 84° East  Level FlightAware Approximate
09:16PM 51.9831 -40.2705 84° East  Level FlightAware Approximate
09:17PM 51.9978 -40.0354 84° East  Level FlightAware Approximate
09:18PM 52.0282 -39.8045 77° East  Level FlightAware Approximate
09:19PM 52.0610 -39.5740 77° East  Level FlightAware Approximate
09:20PM 52.0934 -39.3431 77° East  Level FlightAware Approximate
09:21PM 52.1253 -39.1119 77° East  Level FlightAware Approximate
09:22PM 52.1568 -38.8804 77° East  Level FlightAware Approximate
09:23PM 52.1878 -38.6486 78° East  Level FlightAware Approximate
09:24PM 52.2183 -38.4165 78° East  Level FlightAware Approximate
09:25PM 52.2484 -38.1840 78° East  Level FlightAware Approximate
09:26PM 52.2780 -37.9512 78° East  Level FlightAware Approximate
09:27PM 52.3072 -37.7181 78° East  Level FlightAware Approximate
09:28PM 52.3359 -37.4847 79° East  Level FlightAware Approximate
09:29PM 52.3642 -37.2510 79° East  Level FlightAware Approximate
09:30PM 52.3920 -37.0170 79° East  Level FlightAware Approximate
09:31PM 52.4193 -36.7827 79° East  Level FlightAware Approximate
09:32PM 52.4462 -36.5482 79° East  Level FlightAware Approximate
09:33PM 52.4726 -36.3133 79° East  Level FlightAware Approximate
09:34PM 52.4985 -36.0782 80° East  Level FlightAware Approximate
09:35PM 52.5240 -35.8428 80° East  Level FlightAware Approximate
09:36PM 52.5490 -35.6071 80° East  Level FlightAware Approximate
09:37PM 52.5735 -35.3711 80° East  Level FlightAware Approximate
09:38PM 52.5976 -35.1349 80° East  Level FlightAware Approximate
09:39PM 52.6212 -34.8984 81° East  Level FlightAware Approximate
09:40PM 52.6443 -34.6617 81° East  Level FlightAware Approximate
09:41PM 52.6670 -34.4248 81° East  Level FlightAware Approximate
09:42PM 52.6892 -34.1875 81° East  Level FlightAware Approximate
09:43PM 52.7109 -33.9501 81° East  Level FlightAware Approximate
09:44PM 52.7321 -33.7124 82° East  Level FlightAware Approximate
09:45PM 52.7528 -33.4745 82° East  Level FlightAware Approximate
09:46PM 52.7731 -33.2364 82° East  Level FlightAware Approximate
09:47PM 52.7929 -32.9980 82° East  Level FlightAware Approximate
09:48PM 52.8122 -32.7594 82° East  Level FlightAware Approximate
09:49PM 52.8311 -32.5206 82° East  Level FlightAware Approximate
09:50PM 52.8495 -32.2817 83° East  Level FlightAware Approximate
09:51PM 52.8674 -32.0425 83° East  Level FlightAware Approximate
09:52PM 52.8848 -31.8031 83° East  Level FlightAware Approximate
09:53PM 52.9017 -31.5635 83° East  Level FlightAware Approximate
09:54PM 52.9181 -31.3238 83° East  Level FlightAware Approximate
09:55PM 52.9341 -31.0838 84° East  Level FlightAware Approximate
09:56PM 52.9495 -30.8437 84° East  Level FlightAware Approximate
09:57PM 52.9645 -30.6035 84° East  Level FlightAware Approximate
09:58PM 52.9790 -30.3630 84° East  Level FlightAware Approximate
09:58PM 53.0000 -30.0000 86° East 555 639 41,000  Level ETMS Enhanced Traffic Management System
09:59PM 52.9931 -30.1224 84° East  Level FlightAware Approximate
10:00PM 53.0046 -29.8814 86° East  Level FlightAware Approximate
10:01PM 53.0137 -29.6400 86° East  Level FlightAware Approximate
10:02PM 53.0223 -29.3986 87° East  Level FlightAware Approximate
10:03PM 53.0304 -29.1570 87° East  Level FlightAware Approximate
10:04PM 53.0684 -27.9518 88° East 555 639 41,000  Level FlightAware Transoceanic
10:05PM 53.0745 -27.6954 88° East 555 639 41,000  Level FlightAware Transoceanic
10:06PM 53.0800 -27.4389 88° East 555 639 41,000  Level FlightAware Transoceanic
10:07PM 53.0850 -27.1824 88° East 555 639 41,000  Level FlightAware Transoceanic
10:08PM 53.0894 -26.9257 88° East 555 639 41,000  Level FlightAware Transoceanic
10:09PM 53.0933 -26.6691 89° East 555 639 41,000  Level FlightAware Transoceanic
10:10PM 53.0966 -26.4124 89° East 555 639 41,000  Level FlightAware Transoceanic
10:11PM 53.0993 -26.1556 89° East 555 639 41,000  Level FlightAware Transoceanic
10:12PM 53.1016 -25.8988 89° East 555 639 41,000  Level FlightAware Transoceanic
10:13PM 53.1032 -25.6420 89° East 555 639 41,000  Level FlightAware Transoceanic
10:14PM 53.1043 -25.3852 90° East 555 639 41,000  Level FlightAware Transoceanic
10:15PM 53.1049 -25.1284 90° East 555 639 41,000  Level FlightAware Transoceanic
10:16PM 53.1049 -24.8716 90° East 555 639 41,000  Level FlightAware Transoceanic
10:17PM 53.1043 -24.6148 90° East 555 639 41,000  Level FlightAware Transoceanic
10:18PM 53.1032 -24.3580 91° East 555 639 41,000  Level FlightAware Transoceanic
10:19PM 53.1016 -24.1012 91° East 555 639 41,000  Level FlightAware Transoceanic
10:20PM 53.0993 -23.8444 91° East 555 639 41,000  Level FlightAware Transoceanic
10:21PM 53.0966 -23.5876 91° East 555 639 41,000  Level FlightAware Transoceanic
10:22PM 53.0933 -23.3309 91° East 555 639 41,000  Level FlightAware Transoceanic
10:23PM 53.0894 -23.0743 92° East 555 639 41,000  Level FlightAware Transoceanic
10:24PM 53.0850 -22.8176 92° East 555 639 41,000  Level FlightAware Transoceanic
10:25PM 53.0800 -22.5611 92° East 555 639 41,000  Level FlightAware Transoceanic
10:26PM 53.0745 -22.3046 92° East 555 639 41,000  Level FlightAware Transoceanic
10:27PM 53.0684 -22.0482 92° East 555 639 41,000  Level FlightAware Transoceanic
10:28PM 53.0618 -21.7918 93° East 555 639 41,000  Level FlightAware Transoceanic
10:29PM 53.0546 -21.5355 93° East 555 639 41,000  Level FlightAware Transoceanic
10:30PM 53.0469 -21.2794 93° East 555 639 41,000  Level FlightAware Transoceanic
10:31PM 53.0386 -21.0233 93° East 555 639 41,000  Level FlightAware Transoceanic
10:32PM 53.0298 -20.7673 93° East 555 639 41,000  Level FlightAware Transoceanic
10:33PM 53.0204 -20.5114 94° East 555 639 41,000  Level FlightAware Transoceanic
10:34PM 53.0105 -20.2556 94° East 555 639 41,000  Level FlightAware Transoceanic
10:35PM 53.0006 -20.0144 94° East  Level FlightAware Approximate
10:36PM 52.9903 -19.7732 94° East  Level FlightAware Approximate
10:37PM 53.0191 -19.7896 81° East  Level FlightAware Approximate
10:38PM 53.0403 -19.5502 82° East  Level FlightAware Approximate
10:39PM 53.0611 -19.3106 82° East  Level FlightAware Approximate
10:40PM 53.0814 -19.0708 82° East  Level FlightAware Approximate
10:41PM 53.1012 -18.8307 82° East  Level FlightAware Approximate
10:42PM 53.1205 -18.5904 82° East  Level FlightAware Approximate
10:43PM 53.1393 -18.3500 82° East  Level FlightAware Approximate
10:44PM 53.1577 -18.1092 83° East  Level FlightAware Approximate
10:45PM 53.1755 -17.8683 83° East  Level FlightAware Approximate
10:46PM 53.1929 -17.6273 83° East  Level FlightAware Approximate
10:47PM 53.2098 -17.3860 83° East  Level FlightAware Approximate
10:48PM 53.2262 -17.1445 83° East  Level FlightAware Approximate
10:49PM 53.2421 -16.9028 84° East  Level FlightAware Approximate
10:50PM 53.2575 -16.6610 84° East  Level FlightAware Approximate
10:51PM 53.2725 -16.4190 84° East  Level FlightAware Approximate
10:52PM 53.2869 -16.1768 84° East  Level FlightAware Approximate
10:53PM 53.3009 -15.9344 84° East  Level FlightAware Approximate
10:54PM 53.3143 -15.6919 85° East  Level FlightAware Approximate
10:55PM 53.3273 -15.4493 85° East  Level FlightAware Approximate
10:56PM 53.3398 -15.2065 85° East  Level FlightAware Approximate
10:57PM 53.3518 -14.9636 85° East  Level FlightAware Approximate
10:58PM 53.3637 -14.7205 85° East  Level FlightAware Approximate
10:59PM 53.3750 -14.4774 85° East  Level FlightAware Approximate
11:00PM 53.3859 -14.2341 86° East  Level FlightAware Approximate
11:01PM 53.3963 -13.9907 86° East  Level FlightAware Approximate
11:02PM 53.4063 -13.7472 86° East  Level FlightAware Approximate
11:03PM 53.4158 -13.5036 86° East  Level FlightAware Approximate
11:04PM 53.4249 -13.2599 86° East  Level FlightAware Approximate
11:05PM 53.4335 -13.0161 87° East  Level FlightAware Approximate
11:06PM 53.4416 -12.7722 87° East  Level FlightAware Approximate
11:07PM 53.4492 -12.5282 87° East  Level FlightAware Approximate
11:08PM 53.4576 -12.2842 87° East  Level FlightAware Approximate
11:09PM 53.4657 -12.0402 87° East  Level FlightAware Approximate
11:10PM 53.4734 -11.7961 87° East  Level FlightAware Approximate
11:11PM 53.4805 -11.5518 87° East  Level FlightAware Approximate
11:12PM 53.4861 -11.3075 88° East  Level FlightAware Approximate
11:13PM 53.4906 -11.0630 88° East  Level FlightAware Approximate
11:14PM 53.4945 -10.8185 88° East  Level FlightAware Approximate
11:15PM 53.4979 -10.5739 89° East  Level FlightAware Approximate
11:16PM 53.5012 -10.3294 88° East  Level FlightAware Approximate
11:17PM 53.5048 -10.0848 88° East  Level FlightAware Approximate
11:18PM 53.5080 -9.8402 89° East  Level FlightAware Approximate
11:18PM 53.5750 -8.9784 89° East 500 575 41,000  Level FlightAware UK
11:19PM 53.5733 -8.8522 91° East 500 575 41,000  Level FlightAware UK
11:19PM 53.5716 -8.7264 91° East 496 571 41,000  Level FlightAware UK
11:20PM 53.5696 -8.6012 91° East 496 571 41,000  Level FlightAware UK
11:20PM 53.5676 -8.4763 92° East 496 571 41,000  Level FlightAware UK
11:21PM 53.5653 -8.3499 92° East 500 575 41,000  Level FlightAware UK
11:21PM 53.5628 -8.2238 92° East 500 575 41,000  Level FlightAware UK
11:22PM 53.5605 -8.0979 92° East 500 575 41,000  Level FlightAware UK
11:22PM 53.5577 -7.9728 92° East 496 571 41,000  Level FlightAware UK
11:23PM 53.5548 -7.8462 92° East 498 573 41,000  Level FlightAware UK
11:23PM 53.5520 -7.7214 92° East 498 573 41,000  Level FlightAware UK
11:24PM 53.5487 -7.5724 92° East 496 571 41,000  Level FlightAware UK
11:24PM 53.5456 -7.4459 92° East 498 573 41,000  Level FlightAware UK
11:25PM 53.5422 -7.3199 92° East 498 573 41,000  Level FlightAware UK
11:25PM 53.5388 -7.1938 93° East 496 571 41,000  Level FlightAware UK
11:26PM 53.5352 -7.0673 93° East 502 578 41,000  Level FlightAware UK
11:26PM 53.5316 -6.9408 93° East 498 573 41,000  Level FlightAware UK
11:27PM 53.5276 -6.8136 93° East 500 575 41,000  Level FlightAware UK
11:28PM 53.5228 -6.6633 93° East 498 573 41,000  Level FlightAware UK
11:28PM 53.5187 -6.5367 93° East 498 573 41,000  Level FlightAware UK
11:29PM 53.5146 -6.4109 93° East 496 571 41,000  Level FlightAware UK
11:29PM 53.5101 -6.2850 93° East 500 575 41,000  Level FlightAware UK
11:30PM 53.5055 -6.1579 93° East 500 575 41,000  Level FlightAware UK
11:30PM 53.4958 -6.0332 97° East 496 571 41,000  Level FlightAware UK
11:31PM 53.4788 -5.9112 103° East 494 568 41,000  Level FlightAware UK
11:31PM 53.4562 -5.7659 105° East 490 564 41,000  Level FlightAware UK
11:32PM 53.4375 -5.6451 105° East 488 562 41,000  Level FlightAware UK
11:32PM 53.4188 -5.5276 105° East 478 550 41,000  Level FlightAware UK
11:33PM 53.4004 -5.4112 105° East 482 555 41,000  Level FlightAware UK
11:33PM 53.3816 -5.2942 105° East 494 568 41,000  Level FlightAware UK
11:34PM 53.3625 -5.1750 105° East 498 573 41,000  Level FlightAware UK
11:34PM 53.3399 -5.0348 105° East 488 562 41,000  Level FlightAware UK
11:36PM 53.2657 -4.5854 105° East 480 552 41,000  Level FlightAware UK
11:37PM 53.2471 -4.4730 105° East 482 555 41,000  Level FlightAware UK
11:37PM 53.2282 -4.3613 106° East 480 552 41,000  Level FlightAware UK
11:38PM 53.2096 -4.2520 106° East 472 543 41,000  Level FlightAware UK
11:38PM 53.1909 -4.1424 106° East 478 550 41,000  Level FlightAware UK
11:39PM 53.1719 -4.0318 106° East 476 548 41,000  Level FlightAware UK
11:39PM 53.1531 -3.9219 106° East 480 552 41,000  Level FlightAware UK
11:40PM 53.1339 -3.8123 106° East 480 552 41,000  Level FlightAware UK
11:40PM 53.1145 -3.7018 106° East 476 548 41,000  Level FlightAware UK
11:41PM 53.0919 -3.5738 106° East 476 548 41,000  Level FlightAware UK
11:41PM 53.0728 -3.4658 106° East 476 548 41,000 -300 Level FlightAware UK
11:42PM 53.0534 -3.3568 106° East 478 550 40,700 -1,140 Descending FlightAware UK
11:42PM 53.0337 -3.2478 107° East 484 557 39,900 -1,500 Descending FlightAware UK
11:43PM 53.0140 -3.1389 107° East 476 548 39,200 -1,500 Descending FlightAware UK
11:43PM 52.9944 -3.0303 107° East 476 548 38,400 -1,620 Descending FlightAware UK
11:44PM 52.9741 -2.9203 107° East 476 548 37,600 -1,500 Descending FlightAware UK
11:44PM 52.9542 -2.8118 107° East 472 543 36,900 -1,440 Descending FlightAware UK
11:45PM 52.9346 -2.7058 107° East 476 548 36,200 -1,500 Descending FlightAware UK
11:45PM 52.9086 -2.6059 113° Southeast 468 539 35,400 -1,500 Descending FlightAware UK
11:46PM 52.8739 -2.5137 122° Southeast 470 541 34,700 -1,500 Descending FlightAware UK
11:46PM 52.8308 -2.4051 123° Southeast 478 550 33,800 -1,560 Descending FlightAware UK
11:47PM 52.7936 -2.3123 124° Southeast 470 541 33,000 -1,560 Descending FlightAware UK
11:48PM 52.7512 -2.2068 124° Southeast 466 536 32,100 -1,500 Descending FlightAware UK
11:48PM 52.7165 -2.1208 124° Southeast 464 534 31,400 -1,500 Descending FlightAware UK
11:49PM 52.6813 -2.0339 124° Southeast 472 543 30,600 -1,500 Descending FlightAware UK
11:49PM 52.6457 -1.9466 124° Southeast 472 543 29,900 -1,740 Descending FlightAware UK
11:50PM 52.6103 -1.8600 124° Southeast 464 534 28,900 -2,040 Descending FlightAware UK
11:50PM 52.5694 -1.7614 124° Southeast 454 522 27,700 -2,040 Descending FlightAware UK
11:51PM 52.5351 -1.6780 124° Southeast 450 518 26,700 -1,980 Descending FlightAware UK
11:51PM 52.5011 -1.5944 124° Southeast 444 511 25,700 -2,040 Descending FlightAware UK
11:52PM 52.4678 -1.5142 124° Southeast 436 502 24,700 -2,100 Descending FlightAware UK
11:52PM 52.4281 -1.4187 124° Southeast 432 497 23,400 -2,280 Descending FlightAware UK
11:53PM 52.3957 -1.3410 124° Southeast 412 474 22,200 -2,460 Descending FlightAware UK
11:53PM 52.3597 -1.2530 124° Southeast 392 451 20,700 -2,520 Descending FlightAware UK
11:54PM 52.3244 -1.1691 125° Southeast 382 440 19,200 -2,580 Descending FlightAware UK
11:54PM 52.2960 -1.1007 124° Southeast 372 428 17,900 -2,520 Descending FlightAware UK
11:55PM 52.2678 -1.0345 125° Southeast 366 421 16,700 -2,640 Descending FlightAware UK
11:55PM 52.2399 -0.9684 125° Southeast 362 417 15,300 -2,820 Descending FlightAware UK
11:56PM 52.2087 -0.8904 123° Southeast 348 400 13,600 -2,820 Descending FlightAware UK
11:57PM 52.1822 -0.8249 123° Southeast 346 398 12,200 -2,820 Descending FlightAware UK
11:57PM 52.1537 -0.7540 123° Southeast 306 352 10,500 -2,700 Descending FlightAware UK
11:58PM 52.1288 -0.6892 122° Southeast 276 318 9,000 -1,920 Descending FlightAware UK
11:58PM 52.1057 -0.6299 122° Southeast 250 288 8,200 -840 Descending FlightAware UK
11:59PM 52.0830 -0.5722 123° Southeast 250 288 8,000 -180 Descending FlightAware UK
12:00AM 52.0597 -0.5153 124° Southeast 250 288 8,000 -180 Level FlightAware UK
12:00AM 52.0361 -0.4585 124° Southeast 250 288 7,800 -960 Descending FlightAware UK
12:01AM 52.0117 -0.4013 125° Southeast 250 288 6,900 -1,440 Descending FlightAware UK
12:01AM 51.9878 -0.3459 125° Southeast 252 290 6,100 -1,320 Descending FlightAware UK
12:02AM 51.9801 -0.2935 103° East 244 281 5,500 -1,140 Descending FlightAware UK
12:03AM 51.9842 -0.2252 84° East 232 267 4,900 -1,200 Descending FlightAware UK
12:03AM 51.9881 -0.1623 84° East 232 267 4,100 -1,500 Descending FlightAware UK
12:04AM 51.9773 -0.1146 110° East 228 262 3,300 -1,140 Descending FlightAware UK
12:04AM 51.9445 -0.0950 160° South 204 235 2,900 -360 Descending FlightAware UK
12:05AM 51.9206 -0.1249 218° Southwest 178 205 2,900  Level FlightAware UK
12:05AM 51.9113 -0.1553 244° Southwest 160 184 2,900 -420 Level FlightAware UK
12:06AM 51.9039 -0.1946 253° West 158 182 2,500 -780 Descending FlightAware UK
12:07AM 51.8974 -0.2345 255° West 156 180 2,000 -840 Descending FlightAware UK
12:07AM 51.8920 -0.2670 255° West 122 140 1,500 -720 Descending FlightAware UK
12:08AM 51.8867 -0.2980 255° West 120 138 1,200 -600 Descending FlightAware UK
12:08AM 51.8814 -0.3272 254° West 118 136 800 -600 Descending FlightAware UK
12:09AM 51.8765 -0.3565 255° West 118 136 500 -540 Descending FlightAware UK
12:11AM 51.8667 -0.3667 129° Southeast  Level FlightAware Approximate
12:18AM 51.8747 -0.3683 129° Southeast  Level Estimated
12:19AM 51.8747 -0.3683 129° Southeast  Level Estimated
12:20AM 51.8747 -0.3683 129° Southeast  Level Estimated
12:21AM 51.8747 -0.3683 129° Southeast  Level Estimated
12:22AM 51.8747 -0.3683 129° Southeast  Level Estimated
12:23AM 51.8747 -0.3683 129° Southeast  Level Estimated
12:24AM 51.8747 -0.3683 129° Southeast  Level Estimated
12:25AM 51.8747 -0.3683 129° Southeast  Level Estimated
12:26AM 51.8747 -0.3683 129° Southeast  Level Estimated
12:27AM 51.8747 -0.3683 129° Southeast  Level Estimated